KPAH/PAH METAR and TAF weather

Enter ICAO airport designator
Station Type Date Time Source
KPAH METAR 2020/08/15 10:31 UTC NOAA

KPAH 151031Z AUTO 00000KT 2 1/2SM BR CLR 21/20 A2993 RMK AO2 T02110200


Station Type Date Time Source
KPAH Decoded METAR 2020/08/15 10:31 UTC NOAA

BARKLEY REGIONAL AIRPORT, KY, United States (KPAH) 37-03N 088-46W 118M
Aug 15, 2020 - 06:31 AM EDT / 2020.08.15 1031 UTC
Wind: Calm:0
Visibility: 2 1/2 mile(s):0
Sky conditions: clear
Weather: mist
Temperature: 70.0 F (21.1 C)
Dew Point: 68.0 F (20.0 C)
Relative Humidity: 93%
Pressure (altimeter): 29.93 in. Hg (1013 hPa)
ob: KPAH 151031Z AUTO 00000KT 2 1/2SM BR CLR 21/20 A2993 RMK AO2 T02110200
cycle: 10

Station Type Date Time Source
KPAH TAF 2020/08/15 06:22 UTC NOAA

TAF KPAH 150520Z 1506/1606 00000KT 4SM BR SCT250
TEMPO 1507/1511 2SM BR BCFG
FM151400 34006KT P6SM FEW250
FM151700 35007KT P6SM SCT035
FM160000 VRB03KT P6SM BKN250

Example: see airport list